createdAt,value
2019-05-17T00:01:17.344Z,1.65
2019-05-17T00:03:47.162Z,1.75
2019-05-17T00:06:16.995Z,2.33
2019-05-17T00:08:47.271Z,1.72
2019-05-17T00:11:16.913Z,1.67
2019-05-17T00:13:46.648Z,1.55
2019-05-17T00:16:17.458Z,1.62
2019-05-17T00:18:47.206Z,1.67
2019-05-17T00:21:17.074Z,1.52
2019-05-17T00:23:46.958Z,2.15
2019-05-17T00:26:16.500Z,1.87
2019-05-17T00:28:46.923Z,1.87
2019-05-17T00:31:17.128Z,1.30
2019-05-17T00:33:47.119Z,1.85
2019-05-17T00:36:17.800Z,1.70
2019-05-17T00:38:50.984Z,1.67
2019-05-17T00:41:18.235Z,1.87
2019-05-17T00:43:47.241Z,1.50
2019-05-17T00:46:17.205Z,2.20
2019-05-17T00:48:46.684Z,1.52
2019-05-17T00:51:16.717Z,1.95
2019-05-17T00:53:46.786Z,1.60
2019-05-17T00:56:17.095Z,1.82
2019-05-17T00:58:47.811Z,1.82
2019-05-17T01:01:17.727Z,1.90
2019-05-17T01:03:47.677Z,1.72
2019-05-17T01:06:17.020Z,1.57
2019-05-17T01:08:59.397Z,1.62
2019-05-17T01:11:17.999Z,1.80
2019-05-17T01:13:47.539Z,1.72
2019-05-17T01:16:16.927Z,1.60
2019-05-17T01:18:47.004Z,1.65
2019-05-17T01:21:17.382Z,1.70
2019-05-17T01:23:46.856Z,1.72
2019-05-17T01:26:18.265Z,1.40
2019-05-17T01:28:47.337Z,1.80
2019-05-17T01:31:17.264Z,2.20
2019-05-17T01:33:47.177Z,1.90
2019-05-17T01:36:17.291Z,1.87
2019-05-17T01:38:46.879Z,1.80
2019-05-17T01:41:17.355Z,1.70
2019-05-17T01:43:47.455Z,1.92
2019-05-17T01:46:17.227Z,2.00
2019-05-17T01:48:47.121Z,2.50
2019-05-17T01:51:17.092Z,2.35
2019-05-17T01:53:47.068Z,1.77
2019-05-17T01:56:17.037Z,1.80
2019-05-17T01:58:46.967Z,1.82
2019-05-17T02:01:17.123Z,1.72
2019-05-17T02:03:47.038Z,1.72
2019-05-17T02:06:16.932Z,1.57
2019-05-17T02:08:47.487Z,1.80
2019-05-17T02:11:18.448Z,1.52
2019-05-17T02:13:48.227Z,1.70
2019-05-17T02:16:17.732Z,1.80
2019-05-17T02:18:47.466Z,1.62
2019-05-17T02:21:16.951Z,2.10
2019-05-17T02:23:47.057Z,1.60
2019-05-17T02:26:17.361Z,1.90
2019-05-17T02:28:47.072Z,1.72
2019-05-17T02:31:16.137Z,1.30
2019-05-17T02:33:45.893Z,1.55
2019-05-17T02:36:15.030Z,1.72
2019-05-17T02:38:44.104Z,1.98
2019-05-17T02:41:14.356Z,1.70
2019-05-17T02:43:45.549Z,2.02
2019-05-17T02:46:14.983Z,1.50
2019-05-17T02:48:44.037Z,1.72
2019-05-17T02:51:13.609Z,1.60
2019-05-17T02:53:43.205Z,1.27
2019-05-17T02:56:13.672Z,1.42
2019-05-17T02:58:44.035Z,1.55
2019-05-17T03:02:12.591Z,1.40
2019-05-17T03:04:43.278Z,1.50
2019-05-17T03:07:13.529Z,1.70
2019-05-17T03:09:43.402Z,1.20
2019-05-17T03:12:12.954Z,1.20
2019-05-17T03:14:43.303Z,1.40
2019-05-17T03:17:14.051Z,1.42
2019-05-17T03:19:43.969Z,1.75
2019-05-17T03:22:13.551Z,1.77
2019-05-17T03:24:43.969Z,1.37
2019-05-17T03:27:13.966Z,1.50
2019-05-17T03:29:43.664Z,1.57
2019-05-17T03:32:17.439Z,1.35
2019-05-17T03:34:46.850Z,1.40
2019-05-17T03:37:16.475Z,1.55
2019-05-17T03:39:46.538Z,1.60
2019-05-17T03:42:16.036Z,1.52
2019-05-17T03:44:45.493Z,1.52
2019-05-17T03:47:14.628Z,1.37
2019-05-17T03:49:44.050Z,1.40
2019-05-17T03:52:13.819Z,1.47
2019-05-17T03:54:43.171Z,1.42
2019-05-17T03:57:13.546Z,1.40
2019-05-17T03:59:43.276Z,1.10
2019-05-17T04:02:12.811Z,1.47
2019-05-17T04:04:42.945Z,1.50
2019-05-17T04:07:12.877Z,1.52
2019-05-17T04:09:43.756Z,1.40
2019-05-17T04:12:13.693Z,1.40
2019-05-17T04:14:43.142Z,1.50
2019-05-17T04:17:13.128Z,1.52
2019-05-17T04:19:43.369Z,1.95
2019-05-17T04:22:13.778Z,1.72
2019-05-17T04:24:44.109Z,1.30
2019-05-17T04:27:14.302Z,1.80
2019-05-17T04:29:43.947Z,1.75
2019-05-17T04:32:13.292Z,1.42
2019-05-17T04:34:43.821Z,1.42
2019-05-17T04:37:13.760Z,1.35
2019-05-17T04:39:43.351Z,1.42
2019-05-17T04:42:13.611Z,1.57
2019-05-17T04:44:43.916Z,1.72
2019-05-17T04:47:13.532Z,1.30
2019-05-17T04:49:44.150Z,1.40
2019-05-17T04:52:14.885Z,1.42
2019-05-17T04:54:44.453Z,1.98
2019-05-17T04:57:14.289Z,1.40
2019-05-17T04:59:43.932Z,1.50
2019-05-17T05:02:13.274Z,1.60
2019-05-17T05:04:43.578Z,1.57
2019-05-17T05:07:13.656Z,1.85
2019-05-17T05:09:43.551Z,1.70
2019-05-17T05:12:13.056Z,1.60
2019-05-17T05:14:43.140Z,1.70
2019-05-17T05:17:12.976Z,1.47
2019-05-17T05:19:42.386Z,1.57
2019-05-17T05:22:13.506Z,1.60
2019-05-17T05:24:43.489Z,1.60
2019-05-17T05:27:13.001Z,1.37
2019-05-17T05:29:42.436Z,1.55
2019-05-17T05:32:12.085Z,2.05
2019-05-17T05:34:42.951Z,1.40
2019-05-17T05:37:15.364Z,1.72
2019-05-17T05:39:44.975Z,1.20
2019-05-17T05:42:14.705Z,1.70
2019-05-17T05:44:44.348Z,1.60
2019-05-17T05:47:13.963Z,1.47
2019-05-17T05:49:43.694Z,1.35
2019-05-17T05:52:12.935Z,1.55
2019-05-17T05:54:42.157Z,1.52
2019-05-17T05:57:12.643Z,1.52
2019-05-17T05:59:43.520Z,2.00
2019-05-17T06:02:12.527Z,1.87
2019-05-17T06:04:42.434Z,1.65
2019-05-17T06:07:12.863Z,1.62
2019-05-17T06:09:42.366Z,1.80
2019-05-17T06:12:23.397Z,1.52
2019-05-17T06:14:42.080Z,1.62
2019-05-17T06:17:12.632Z,1.37
2019-05-17T06:19:42.183Z,1.40
2019-05-17T06:22:12.039Z,1.67
2019-05-17T06:24:42.511Z,1.37
2019-05-17T06:27:12.333Z,1.80
2019-05-17T06:29:41.592Z,2.00
2019-05-17T06:32:11.893Z,1.57
2019-05-17T06:34:42.225Z,1.75
2019-05-17T06:37:12.918Z,1.60
2019-05-17T06:39:42.040Z,1.72
2019-05-17T06:42:12.099Z,1.60
2019-05-17T06:44:41.841Z,2.08
2019-05-17T06:47:11.922Z,1.65
2019-05-17T06:49:42.433Z,5.75
2019-05-17T06:52:11.692Z,1.80
2019-05-17T06:54:41.761Z,1.85
2019-05-17T06:57:12.769Z,1.70
2019-05-17T06:59:41.483Z,1.52
2019-05-17T07:02:10.503Z,1.75
2019-05-17T07:04:39.626Z,1.50
2019-05-17T07:07:26.764Z,1.87
2019-05-17T07:10:00.588Z,1.62
2019-05-17T07:12:30.745Z,1.60
2019-05-17T07:15:01.705Z,1.90
2019-05-17T07:17:30.546Z,2.00
2019-05-17T07:19:59.840Z,2.05
2019-05-17T07:22:29.705Z,1.50
2019-05-17T07:24:59.710Z,1.70
2019-05-17T07:27:40.997Z,1.50
2019-05-17T07:29:59.365Z,1.98
2019-05-17T07:32:29.738Z,2.00
2019-05-17T07:35:00.079Z,1.62
2019-05-17T07:37:30.389Z,1.57
2019-05-17T07:40:04.717Z,1.90
2019-05-17T07:42:29.965Z,1.80
2019-05-17T07:45:00.565Z,2.00
2019-05-17T07:47:29.535Z,1.92
2019-05-17T07:50:00.963Z,1.95
2019-05-17T07:52:29.981Z,1.75
2019-05-17T07:55:02.290Z,1.80
2019-05-17T07:57:30.013Z,1.90
2019-05-17T07:59:59.945Z,1.70
2019-05-17T08:02:30.620Z,1.72
2019-05-17T08:05:00.540Z,1.65
2019-05-17T08:07:30.201Z,2.33
2019-05-17T08:10:00.107Z,1.45
2019-05-17T08:12:30.590Z,1.85
2019-05-17T08:14:59.941Z,1.82
2019-05-17T08:17:30.497Z,1.50
2019-05-17T08:20:00.594Z,1.67
2019-05-17T08:22:29.793Z,1.35
2019-05-17T08:25:00.026Z,2.05
2019-05-17T08:27:29.689Z,2.47
2019-05-17T08:29:59.746Z,1.27
2019-05-17T08:32:31.349Z,1.30
2019-05-17T08:35:00.279Z,1.75
2019-05-17T08:37:30.141Z,1.37
2019-05-17T08:40:00.057Z,1.77
2019-05-17T08:42:30.016Z,1.80
2019-05-17T08:45:00.234Z,2.45
2019-05-17T08:47:30.038Z,1.52
2019-05-17T08:50:00.476Z,1.50
2019-05-17T08:52:29.672Z,2.40
2019-05-17T08:55:00.404Z,1.50
2019-05-17T08:57:30.285Z,1.98
2019-05-17T09:00:00.840Z,1.80
2019-05-17T09:02:30.175Z,1.82
2019-05-17T09:05:00.463Z,1.62
2019-05-17T09:07:31.504Z,1.60
2019-05-17T09:10:01.781Z,1.87
2019-05-17T09:12:31.071Z,2.08
2019-05-17T09:15:00.482Z,1.45
2019-05-17T09:17:29.982Z,1.45
2019-05-17T09:20:00.687Z,1.40
2019-05-17T09:22:30.546Z,1.80
2019-05-17T09:24:59.666Z,1.85
2019-05-17T09:27:30.045Z,1.62
2019-05-17T09:30:00.053Z,1.60
2019-05-17T09:32:29.617Z,1.40
2019-05-17T09:35:00.396Z,1.50
2019-05-17T09:37:30.322Z,2.12
2019-05-17T09:39:59.847Z,1.80
2019-05-17T09:42:29.964Z,1.70
2019-05-17T09:45:00.411Z,1.70
2019-05-17T09:47:30.077Z,1.85
2019-05-17T09:50:00.549Z,1.72
2019-05-17T09:52:29.735Z,1.60
2019-05-17T09:55:00.551Z,1.90
2019-05-17T09:57:29.774Z,1.57
2019-05-17T10:00:00.205Z,1.75
2019-05-17T10:02:29.217Z,1.60
2019-05-17T10:04:59.841Z,1.90
2019-05-17T10:07:29.873Z,1.85
2019-05-17T10:09:59.759Z,1.35
2019-05-17T10:12:29.012Z,2.17
2019-05-17T10:15:00.277Z,1.65
2019-05-17T10:17:29.397Z,2.00
2019-05-17T10:19:59.951Z,1.60
2019-05-17T10:22:30.347Z,1.87
2019-05-17T10:25:00.319Z,1.47
2019-05-17T10:27:30.246Z,1.90
2019-05-17T10:29:59.524Z,1.40
2019-05-17T10:32:30.979Z,1.90
2019-05-17T10:35:00.279Z,1.52
2019-05-17T10:37:30.303Z,1.67
2019-05-17T10:39:59.335Z,2.08
2019-05-17T10:42:30.583Z,1.67
2019-05-17T10:44:59.921Z,1.82
2019-05-17T10:47:30.158Z,1.80
2019-05-17T10:49:59.357Z,1.70
2019-05-17T10:52:29.937Z,2.22
2019-05-17T10:54:59.888Z,2.33
2019-05-17T10:57:30.324Z,2.00
2019-05-17T10:59:59.385Z,2.45
2019-05-17T11:02:30.416Z,1.75
2019-05-17T11:05:00.786Z,1.92
2019-05-17T11:07:29.257Z,2.17
2019-05-17T11:10:00.344Z,1.90
2019-05-17T11:12:28.610Z,1.75
2019-05-17T11:15:10.349Z,2.70
2019-05-17T11:17:27.959Z,3.50
2019-05-17T11:19:56.914Z,2.15
2019-05-17T11:22:25.755Z,2.15
2019-05-17T11:24:54.597Z,2.40
2019-05-17T11:27:23.448Z,2.22
2019-05-17T11:29:52.367Z,1.80
2019-05-17T11:32:21.192Z,2.05
2019-05-17T11:34:50.231Z,1.65
2019-05-17T11:37:19.230Z,2.20
2019-05-17T11:39:48.109Z,1.87
2019-05-17T11:42:17.015Z,1.90
2019-05-17T11:44:46.060Z,2.12
2019-05-17T11:47:14.874Z,2.10
2019-05-17T11:49:43.791Z,2.20
2019-05-17T11:52:12.706Z,2.45
2019-05-17T11:54:41.602Z,1.77
2019-05-17T11:57:12.311Z,2.42
2019-05-17T11:59:41.063Z,1.72
2019-05-17T12:02:09.928Z,2.27
2019-05-17T12:04:38.727Z,2.50
2019-05-17T12:07:07.573Z,2.40
2019-05-17T12:09:37.862Z,1.90
2019-05-17T12:12:06.820Z,2.10
2019-05-17T12:14:35.658Z,2.00
2019-05-17T12:17:04.593Z,1.82
2019-05-17T12:19:36.914Z,1.72
2019-05-17T12:22:03.994Z,2.52
2019-05-17T12:24:32.927Z,2.35
2019-05-17T12:27:01.703Z,3.17
2019-05-17T12:29:30.524Z,1.82
2019-05-17T12:31:59.306Z,2.50
2019-05-17T12:34:28.141Z,2.62
2019-05-17T12:36:57.632Z,2.20
2019-05-17T12:39:26.471Z,2.05
2019-05-17T12:41:55.329Z,1.77
2019-05-17T12:44:24.246Z,2.00
2019-05-17T12:46:53.045Z,1.98
2019-05-17T12:49:21.896Z,2.25
2019-05-17T12:51:50.780Z,2.25
2019-05-17T12:54:19.723Z,2.00
2019-05-17T12:56:48.551Z,1.90
2019-05-17T12:59:17.578Z,2.30
2019-05-17T13:01:46.393Z,2.10
2019-05-17T13:04:15.318Z,2.35
2019-05-17T13:06:44.081Z,2.05
2019-05-17T13:09:12.876Z,1.98
2019-05-17T13:11:41.733Z,1.80
2019-05-17T13:14:10.573Z,1.77
2019-05-17T13:16:42.724Z,1.82
2019-05-17T13:19:11.579Z,2.30
2019-05-17T13:21:40.432Z,1.80
2019-05-17T13:24:09.317Z,2.52
2019-05-17T13:26:38.199Z,1.80
2019-05-17T13:29:07.101Z,2.40
2019-05-17T13:31:35.904Z,1.80
2019-05-17T13:34:04.789Z,2.47
2019-05-17T13:36:33.655Z,2.20
2019-05-17T13:39:02.550Z,2.10
2019-05-17T13:41:31.365Z,1.72
2019-05-17T13:44:03.093Z,2.42
2019-05-17T13:46:33.493Z,2.30
2019-05-17T13:49:02.480Z,2.27
2019-05-17T13:51:31.704Z,2.67
2019-05-17T13:54:00.590Z,2.33
2019-05-17T13:56:29.442Z,2.30
2019-05-17T13:58:58.363Z,1.92
2019-05-17T14:01:27.185Z,1.98
2019-05-17T14:03:56.444Z,1.80
2019-05-17T14:06:25.358Z,2.02
2019-05-17T14:08:54.171Z,1.82
2019-05-17T14:11:23.003Z,2.00
2019-05-17T14:13:51.758Z,1.75
2019-05-17T14:16:20.611Z,2.20
2019-05-17T14:18:49.480Z,1.90
2019-05-17T14:21:18.301Z,2.02
2019-05-17T14:23:47.150Z,2.37
2019-05-17T14:26:15.989Z,2.00
2019-05-17T14:28:44.813Z,2.00
2019-05-17T14:31:13.615Z,1.90
2019-05-17T14:33:42.418Z,2.10
2019-05-17T14:36:11.258Z,1.50
2019-05-17T14:38:40.015Z,1.70
2019-05-17T14:41:09.189Z,2.47
2019-05-17T14:43:38.257Z,1.85
2019-05-17T14:46:07.528Z,1.98
2019-05-17T14:48:36.446Z,2.10
2019-05-17T14:51:05.229Z,2.17
2019-05-17T14:53:34.044Z,2.00
2019-05-17T14:56:02.928Z,1.87
2019-05-17T14:58:31.739Z,2.30
2019-05-17T15:01:00.505Z,1.80
2019-05-17T15:03:29.411Z,1.92
2019-05-17T15:05:58.184Z,1.75
2019-05-17T15:08:27.017Z,1.85
2019-05-17T15:10:55.941Z,1.67
2019-05-17T15:13:24.805Z,2.02
2019-05-17T15:15:53.633Z,2.02
2019-05-17T15:18:22.463Z,1.55
2019-05-17T15:20:51.327Z,2.05
2019-05-17T15:23:20.157Z,1.50
2019-05-17T15:25:49.052Z,1.70
2019-05-17T15:28:17.888Z,1.92
2019-05-17T15:30:46.719Z,1.80
2019-05-17T15:33:15.928Z,1.90
2019-05-17T15:35:44.691Z,1.90
2019-05-17T15:38:13.527Z,1.75
2019-05-17T15:40:42.781Z,1.60
2019-05-17T15:43:11.724Z,1.42
2019-05-17T15:45:40.661Z,1.77
2019-05-17T15:48:09.746Z,2.27
2019-05-17T15:50:38.644Z,1.70
2019-05-17T15:53:07.541Z,1.50
2019-05-17T15:55:36.870Z,1.75
2019-05-17T15:58:06.680Z,2.02
2019-05-17T16:00:36.134Z,1.70
2019-05-17T16:03:05.586Z,1.95
2019-05-17T16:05:35.061Z,1.75
2019-05-17T16:08:04.483Z,2.22
2019-05-17T16:10:33.851Z,1.75
2019-05-17T16:13:03.732Z,1.90
2019-05-17T16:15:33.061Z,2.17
2019-05-17T16:18:02.442Z,1.72
2019-05-17T16:20:31.559Z,1.60
2019-05-17T16:23:01.062Z,2.80
2019-05-17T16:25:39.261Z,2.80
2019-05-17T16:28:08.997Z,4.12
2019-05-17T16:30:38.098Z,1.70
2019-05-17T16:33:07.227Z,3.20
2019-05-17T16:35:36.164Z,3.80
2019-05-17T16:38:05.643Z,5.25
2019-05-17T16:40:35.203Z,8.65
2019-05-17T16:43:17.176Z,8.85
2019-05-17T16:45:35.887Z,3.55
2019-05-17T16:51:21.325Z,2.33
2019-05-17T16:53:50.517Z,2.92
2019-05-17T16:56:21.129Z,2.08
2019-05-17T16:58:50.518Z,2.40
2019-05-17T17:01:20.168Z,2.85
2019-05-17T17:03:49.842Z,2.50
2019-05-17T17:06:19.526Z,2.27
2019-05-17T17:08:49.053Z,2.62
2019-05-17T17:11:18.102Z,2.12
2019-05-17T17:13:47.622Z,4.08
2019-05-17T17:16:17.184Z,1.62
2019-05-17T17:18:46.559Z,1.95
2019-05-17T17:21:19.197Z,1.62
2019-05-17T17:23:48.566Z,1.90
2019-05-17T17:26:17.614Z,1.87
2019-05-17T17:28:46.642Z,1.92
2019-05-17T17:31:17.328Z,2.37
2019-05-17T17:33:46.384Z,1.82
2019-05-17T17:36:18.929Z,1.75
2019-05-17T17:38:47.056Z,2.12
2019-05-17T17:41:17.088Z,2.15
2019-05-17T17:43:57.993Z,1.92
2019-05-17T17:46:18.003Z,1.82
2019-05-17T17:48:47.679Z,1.85
2019-05-17T17:54:45.359Z,1.85
2019-05-17T17:57:15.133Z,1.90
2019-05-17T17:59:44.695Z,1.82
2019-05-17T18:02:14.168Z,1.60
2019-05-17T18:04:43.807Z,1.98
2019-05-17T18:07:13.442Z,1.82
2019-05-17T18:09:42.982Z,2.25
2019-05-17T18:12:12.349Z,1.72
2019-05-17T18:14:44.535Z,1.77
2019-05-17T18:17:13.572Z,2.00
2019-05-17T18:19:43.178Z,6.47
2019-05-17T18:22:12.706Z,2.10
2019-05-17T18:24:42.394Z,1.60
2019-05-17T18:27:11.979Z,1.70
2019-05-17T18:29:41.626Z,2.10
2019-05-17T18:32:11.037Z,2.20
2019-05-17T18:34:41.494Z,2.45
2019-05-17T18:37:12.022Z,2.33
2019-05-17T18:39:41.615Z,2.00
2019-05-17T18:42:10.768Z,2.87
2019-05-17T18:44:40.592Z,3.17
2019-05-17T18:47:10.562Z,2.60
2019-05-17T18:49:40.446Z,2.10
2019-05-17T18:52:11.026Z,1.98
2019-05-17T18:54:40.539Z,2.95
2019-05-17T18:57:09.797Z,2.87
2019-05-17T18:59:38.888Z,2.87
2019-05-17T19:02:08.296Z,3.05
2019-05-17T19:04:38.214Z,2.60
2019-05-17T19:07:07.746Z,2.45
2019-05-17T19:09:37.314Z,2.40
2019-05-17T19:12:07.571Z,2.35
2019-05-17T19:14:43.106Z,2.30
2019-05-17T19:17:08.429Z,2.92
2019-05-17T19:19:38.002Z,2.25
2019-05-17T19:22:07.665Z,2.50
2019-05-17T19:24:36.716Z,3.00
2019-05-17T19:27:06.573Z,3.25
2019-05-17T19:29:36.378Z,3.70
2019-05-17T19:32:06.361Z,2.98
2019-05-17T19:34:36.259Z,2.60
2019-05-17T19:37:05.976Z,2.12
2019-05-17T19:39:36.159Z,3.25
2019-05-17T19:42:05.808Z,3.20
2019-05-17T19:44:35.223Z,2.17
2019-05-17T19:47:04.985Z,3.42
2019-05-17T19:49:34.532Z,2.25
2019-05-17T19:52:04.384Z,2.10
2019-05-17T19:54:34.073Z,2.47
2019-05-17T19:57:03.415Z,2.65
2019-05-17T19:59:32.885Z,2.72
2019-05-17T20:02:02.566Z,2.77
2019-05-17T20:04:32.171Z,2.50
2019-05-17T20:07:01.233Z,2.58
2019-05-17T20:09:30.772Z,2.30
2019-05-17T20:12:00.465Z,2.65
2019-05-17T20:14:30.147Z,2.72
2019-05-17T20:16:59.723Z,3.25
2019-05-17T20:19:28.769Z,2.62
2019-05-17T20:21:58.512Z,2.75
2019-05-17T20:24:27.467Z,2.45
2019-05-17T20:26:56.624Z,2.60
2019-05-17T20:29:26.415Z,2.52
2019-05-17T20:31:55.626Z,2.80
2019-05-17T20:34:24.899Z,3.08
2019-05-17T20:36:54.080Z,2.62
2019-05-17T20:39:23.705Z,3.25
2019-05-17T20:41:52.757Z,2.47
2019-05-17T20:44:22.262Z,2.90
2019-05-17T20:46:51.355Z,2.22
2019-05-17T20:49:20.918Z,2.50
2019-05-17T20:51:50.616Z,2.40
2019-05-17T20:54:20.134Z,2.37
2019-05-17T20:56:49.951Z,2.45
2019-05-17T20:59:19.456Z,2.33
2019-05-17T21:01:49.200Z,2.40
2019-05-17T21:04:18.241Z,3.47
2019-05-17T21:06:48.050Z,2.58
2019-05-17T21:09:17.804Z,2.50
2019-05-17T21:11:46.716Z,3.08
2019-05-17T21:14:16.402Z,2.62
2019-05-17T21:16:45.876Z,3.22
2019-05-17T21:19:15.400Z,2.35
2019-05-17T21:21:44.348Z,2.80
2019-05-17T21:24:13.431Z,2.33
2019-05-17T21:26:42.411Z,2.37
2019-05-17T21:29:11.895Z,2.75
2019-05-17T21:31:41.338Z,2.72
2019-05-17T21:34:10.773Z,2.62
2019-05-17T21:36:40.172Z,2.85
2019-05-17T21:39:09.159Z,2.40
2019-05-17T21:41:38.700Z,2.75
2019-05-17T21:44:08.258Z,2.40
2019-05-17T21:46:37.770Z,2.15
2019-05-17T21:49:07.487Z,2.52
2019-05-17T21:51:37.178Z,2.33
2019-05-17T21:54:06.706Z,2.20
2019-05-17T21:56:36.152Z,2.27
2019-05-17T21:59:05.835Z,2.52
2019-05-17T22:01:34.908Z,3.55
2019-05-17T22:04:04.192Z,3.17
2019-05-17T22:06:33.242Z,2.20
2019-05-17T22:09:02.193Z,2.33
2019-05-17T22:11:31.662Z,2.67
2019-05-17T22:14:00.864Z,2.15
2019-05-17T22:16:29.890Z,2.62
2019-05-17T22:18:58.913Z,2.47
2019-05-17T22:21:28.390Z,2.70
2019-05-17T22:23:57.871Z,2.72
2019-05-17T22:26:27.355Z,2.60
2019-05-17T22:28:56.938Z,2.77
2019-05-17T22:31:26.550Z,3.22
2019-05-17T22:33:55.976Z,2.83
2019-05-17T22:36:25.397Z,2.62
2019-05-17T22:38:54.489Z,3.72
2019-05-17T22:41:24.043Z,2.85
2019-05-17T22:43:53.456Z,2.77
2019-05-17T22:46:35.037Z,2.87
2019-05-17T22:48:53.243Z,3.40
2019-05-17T22:51:22.772Z,2.95
2019-05-17T22:53:51.793Z,3.58
2019-05-17T22:56:21.384Z,5.60
2019-05-17T22:58:50.803Z,12.47
2019-05-17T23:01:19.813Z,13.53
2019-05-17T23:03:49.320Z,14.18
2019-05-17T23:06:18.873Z,14.90
2019-05-17T23:08:47.828Z,20.00
2019-05-17T23:11:17.250Z,19.92
2019-05-17T23:13:46.295Z,21.68
2019-05-17T23:16:15.675Z,18.60
2019-05-17T23:18:46.775Z,20.62
2019-05-17T23:21:16.384Z,13.88
2019-05-17T23:23:45.923Z,7.90
2019-05-17T23:26:15.335Z,6.40
2019-05-17T23:28:44.315Z,5.50
2019-05-17T23:31:13.827Z,3.22
2019-05-17T23:33:42.831Z,2.60
2019-05-17T23:36:12.215Z,2.65
2019-05-17T23:38:41.327Z,2.37
2019-05-17T23:41:10.509Z,2.20
2019-05-17T23:43:39.498Z,2.20
2019-05-17T23:46:08.489Z,2.45
2019-05-17T23:48:38.253Z,2.10
2019-05-17T23:51:07.802Z,2.80
2019-05-17T23:53:37.315Z,2.40
2019-05-17T23:56:06.383Z,2.67
2019-05-17T23:58:35.846Z,2.20
